• Join FlightAware (Why Join?)
  • Login
  • US Flag 
10:12PM EDT


 

Airport Tracker/Info


-or-


 

Live Flight TrackerFlight Track Log ✈ EJA749 ✈ 14-Nov-2013 ✈ KMDW - KRST

Flight Track Log - Related Links

Times and Time Zones

All times are in EST time to prevent confusion due to time zone crossing. See the EJA749 flight status page for this flight to view local times or setup timezone preferences in your user account.

Time Position Orientation Groundspeed Altitude Reporting Facility
EST Latitude Longitude Course Direction KTS MPH feet Rate Location/Type
07:34AM 41.7667 -87.7667 251° West 174 200 2,000  Level Chicago TRACON
07:35AM 41.7500 -87.8333 251° West 214 246 3,900 2,220 Climbing Chicago TRACON
07:36AM 41.7589 -87.9578 276° West 223 257 7,400 2,400 Climbing Chicago Center
07:37AM 41.7633 -88.0439 274° West 231 266 9,900 2,400 Climbing Chicago Center
07:38AM 41.7664 -88.1492 272° West 283 326 12,400 2,400 Climbing Chicago Center
07:39AM 41.7719 -88.2686 274° West 320 368 14,900 2,340 Climbing Chicago Center
07:40AM 41.7772 -88.3875 273° West 322 371 17,300 2,340 Climbing Chicago Center
07:41AM 41.7833 -88.5175 274° West 346 398 19,700 2,580 Climbing Chicago Center
07:42AM 41.7906 -88.6808 273° West 367 422 22,700 2,040 Climbing Chicago Center
07:43AM 41.7969 -88.8267 273° West 388 447 24,000 600 Climbing Chicago Center
07:44AM 41.8397 -88.9803 291° West 443 510 24,000  Level Chicago Center
07:45AM 41.8856 -89.1300 292° West 439 505 24,000  Level Chicago Center
07:46AM 41.9350 -89.2769 294° West 437 503 24,000  Level Chicago Center
07:48AM 41.9831 -89.4256 294° West 435 501 24,000  Level Chicago Center
07:49AM 42.0311 -89.5742 294° West 435 501 24,000  Level Chicago Center
07:50AM 42.0914 -89.7556 294° West 445 512 24,000  Level Chicago Center
07:51AM 42.1428 -89.9078 295° West 448 516 24,000  Level Chicago Center
07:52AM 42.1869 -90.0381 295° West 445 512 24,000  Level Chicago Center
07:53AM 42.2947 -90.1858 315° West 459 528 24,000  Level Chicago Center
07:54AM 42.3811 -90.3050 314° West 448 516 24,000  Level Chicago Center
07:55AM 42.4683 -90.4264 314° West 452 520 24,000  Level Chicago Center
07:56AM 42.5558 -90.5469 315° West 452 520 24,000  Level Chicago Center
07:57AM 42.6428 -90.6675 314° West 450 518 24,000  Level Chicago Center
07:58AM 42.7467 -90.8142 314° West 451 519 24,000  Level Chicago Center
07:59AM 42.8339 -90.9358 314° West 453 521 24,000  Level Chicago Center
08:00AM 42.9206 -91.0597 314° West 457 526 24,000  Level Chicago Center
08:01AM 43.0072 -91.1833 314° West 459 528 24,000  Level Chicago Center
08:02AM 43.0933 -91.3061 314° West 456 525 24,000 -600 Level Chicago Center
08:03AM 43.1608 -91.4022 314° West 453 521 23,100 -1,680 Descending Minneapolis Center
08:04AM 43.2392 -91.5144 314° West 425 489 21,300 -1,920 Descending Minneapolis Center
08:05AM 43.3147 -91.6275 313° West 414 476 19,200 -2,220 Descending Minneapolis Center
08:06AM 43.3844 -91.7286 314° West 384 442 16,800 -2,340 Descending Minneapolis Center
08:07AM 43.4508 -91.8267 313° West 364 419 14,500 -1,740 Descending Minneapolis Center
08:08AM 43.5128 -91.9172 313° West 340 391 13,300 -1,320 Descending Minneapolis Center
08:09AM 43.5731 -92.0047 314° West 323 372 11,800 -1,620 Descending Minneapolis Center
08:10AM 43.6419 -92.1056 313° West 306 352 10,000 -1,800 Descending Minneapolis Center
08:11AM 43.6919 -92.1800 313° West 272 313 8,200 -1,980 Descending Minneapolis Center
08:12AM 43.7444 -92.2572 313° West 258 297 6,000 -2,040 Descending Minneapolis Center
08:13AM 43.7978 -92.3183 320° Northwest 257 296 4,100 -1,500 Descending Minneapolis Center
08:14AM 43.8653 -92.3483 342° North 236 272 3,000 -540 Descending Minneapolis Center
08:15AM 43.9122 -92.3744 338° Northwest 183 211 3,000 -300 Level Minneapolis Center
08:16AM 43.9472 -92.4131 322° Northwest 148 170 2,500 -540 Descending Minneapolis Center
08:17AM 43.9436 -92.4664 265° West 145 167 2,000 -540 Descending Minneapolis Center
08:18AM 43.9167 -92.4928 215° Southwest 123 142 1,400 -360 Descending Minneapolis Center
08:19AM 43.8994 -92.5033 204° Southwest 71 82 1,300 -120 Descending Minneapolis Center